Time;durP1;ratioP1;P1;durP2;ratioP2;P2;SDS_P1;SDS_P2;PMS_P1;PMS_P2;Temp;Humidity;BMP_temperature;BMP_pressure;BME280_temperature;BME280_humidity;BME280_pressure;Samples;Min_cycle;Max_cycle;Signal;HPM_P1;HPM_P2
2022/11/25 00:02:10;;;;;;;22.17;4.82;;;;;;;;;;5049122;28;20132;-65
2022/11/25 00:04:38;;;;;;;21.55;4.70;;;;;;;;;;5032554;28;20033;-65
2022/11/25 00:07:04;;;;;;;26.77;3.97;;;;;;;;;;5050346;28;20557;-66
2022/11/25 00:09:30;;;;;;;33.25;5.22;;;;;;;;;;5050876;28;20036;-65
2022/11/25 00:11:56;;;;;;;30.10;4.60;;;;;;;;;;5050150;28;20108;-65
2022/11/25 00:14:22;;;;;;;22.35;5.22;;;;;;;;;;5050530;28;20045;-65
2022/11/25 00:16:48;;;;;;;19.92;4.03;;;;;;;;;;5050630;28;20033;-66
2022/11/25 00:19:14;;;;;;;22.35;4.13;;;;;;;;;;5050802;28;20408;-65
2022/11/25 00:21:40;;;;;;;26.13;4.95;;;;;;;;;;5033970;28;20041;-65
2022/11/25 00:24:07;;;;;;;20.65;4.57;;;;;;;;;;5040860;28;20033;-66
2022/11/25 00:26:33;;;;;;;26.70;4.38;;;;;;;;;;5048583;28;20408;-65
2022/11/25 00:29:01;;;;;;;16.90;4.63;;;;;;;;;;5054325;28;20039;-66
2022/11/25 00:31:28;;;;;;;22.83;4.25;;;;;;;;;;5054495;28;20036;-66
2022/11/25 00:33:54;;;;;;;21.17;4.32;;;;;;;;;;5054063;28;20041;-66
2022/11/25 00:36:22;;;;;;;24.02;5.28;;;;;;;;;;5055577;28;20049;-68
2022/11/25 00:38:53;;;;;;;22.63;4.53;;;;;;;;;;5054398;28;20041;-68
2022/11/25 00:46:49;;;;;;;20.10;4.05;;;;;;;;;;5054189;28;20069;-69
2022/11/25 00:49:15;;;;;;;21.55;5.15;;;;;;;;;;5054452;28;20040;-69
2022/11/25 00:51:41;;;;;;;19.88;4.57;;;;;;;;;;5054017;28;20032;-69
2022/11/25 00:54:07;;;;;;;20.52;4.78;;;;;;;;;;5053939;28;20041;-69
2022/11/25 00:56:33;;;;;;;16.55;3.38;;;;;;;;;;5053953;28;20094;-69
2022/11/25 00:58:59;;;;;;;19.27;3.75;;;;;;;;;;5053935;28;20045;-69
2022/11/25 01:01:25;;;;;;;27.77;4.88;;;;;;;;;;5037462;28;20122;-69
2022/11/25 01:03:52;;;;;;;26.95;4.43;;;;;;;;;;5037014;28;20481;-69
2022/11/25 01:06:18;;;;;;;27.88;3.72;;;;;;;;;;5053936;28;20128;-69
2022/11/25 01:08:44;;;;;;;20.08;4.10;;;;;;;;;;5055101;28;20045;-68
2022/11/25 01:11:11;;;;;;;24.23;4.65;;;;;;;;;;5053515;28;20033;-68
2022/11/25 01:13:37;;;;;;;26.17;4.55;;;;;;;;;;5053844;28;20081;-68
2022/11/25 01:16:04;;;;;;;26.35;4.40;;;;;;;;;;5050882;28;20047;-68
2022/11/25 01:18:31;;;;;;;19.38;3.95;;;;;;;;;;5082960;28;20525;-68
2022/11/25 01:21:07;;;;;;;24.20;3.92;;;;;;;;;;5053366;28;20041;-68
2022/11/25 01:23:33;;;;;;;26.33;4.28;;;;;;;;;;5053857;28;20048;-69
2022/11/25 01:26:06;;;;;;;23.77;4.30;;;;;;;;;;5053214;28;20508;-69
2022/11/25 01:28:32;;;;;;;19.85;4.22;;;;;;;;;;5053254;28;20397;-69
2022/11/25 01:31:00;;;;;;;20.08;5.53;;;;;;;;;;5054306;28;20044;-69
2022/11/25 01:33:26;;;;;;;19.70;5.47;;;;;;;;;;5053032;28;20586;-69
2022/11/25 01:35:52;;;;;;;23.23;4.60;;;;;;;;;;5052552;28;20045;-69
2022/11/25 01:38:18;;;;;;;18.48;3.75;;;;;;;;;;5053336;28;20072;-69
2022/11/25 01:40:44;;;;;;;23.45;4.40;;;;;;;;;;5052910;28;20110;-69
2022/11/25 01:43:14;;;;;;;26.02;4.25;;;;;;;;;;5036471;28;20037;-69
2022/11/25 01:45:40;;;;;;;22.23;4.35;;;;;;;;;;5054139;28;20439;-69
2022/11/25 01:48:26;;;;;;;23.60;4.28;;;;;;;;;;5052923;28;20068;-69
2022/11/25 01:50:52;;;;;;;21.60;4.28;;;;;;;;;;5052800;28;20041;-69
2022/11/25 01:53:19;;;;;;;23.73;4.70;;;;;;;;;;5053019;28;20469;-69
2022/11/25 01:55:53;;;;;;;19.65;4.15;;;;;;;;;;5052913;28;20083;-69
2022/11/25 01:58:24;;;;;;;19.13;4.30;;;;;;;;;;5054005;28;20041;-69
2022/11/25 02:00:50;;;;;;;18.17;3.92;;;;;;;;;;5052886;28;20054;-69
2022/11/25 02:03:19;;;;;;;22.23;4.22;;;;;;;;;;5052448;28;20049;-69
2022/11/25 02:06:04;;;;;;;20.15;4.60;;;;;;;;;;5053596;28;20045;-69
2022/11/25 02:08:30;;;;;;;20.65;4.40;;;;;;;;;;5053792;28;20033;-69
2022/11/25 02:10:57;;;;;;;18.45;4.72;;;;;;;;;;5053844;28;20037;-69
2022/11/25 02:13:23;;;;;;;18.58;3.88;;;;;;;;;;5053912;28;20037;-69
2022/11/25 02:15:49;;;;;;;16.20;3.67;;;;;;;;;;5035729;28;20072;-69
2022/11/25 02:18:16;;;;;;;27.42;5.20;;;;;;;;;;5052208;28;20086;-69
2022/11/25 02:20:42;;;;;;;18.92;4.32;;;;;;;;;;5067515;28;20513;-69
2022/11/25 02:23:24;;;;;;;20.23;4.88;;;;;;;;;;5052118;28;20048;-69
2022/11/25 02:25:50;;;;;;;23.95;4.63;;;;;;;;;;5052366;28;20037;-69
2022/11/25 02:28:21;;;;;;;25.83;4.30;;;;;;;;;;5053515;28;20098;-69
2022/11/25 02:30:48;;;;;;;20.38;4.47;;;;;;;;;;5051980;28;20049;-69
2022/11/25 02:33:14;;;;;;;17.33;3.90;;;;;;;;;;5052367;28;20132;-69
2022/11/25 02:35:42;;;;;;;30.75;5.30;;;;;;;;;;5052121;28;20155;-69
2022/11/25 02:38:11;;;;;;;19.38;4.72;;;;;;;;;;5051792;28;20044;-69
2022/11/25 02:40:40;;;;;;;25.63;5.22;;;;;;;;;;5051785;28;20041;-69
2022/11/25 02:43:06;;;;;;;18.40;4.05;;;;;;;;;;5051262;28;20044;-69
2022/11/25 02:45:44;;;;;;;23.67;4.57;;;;;;;;;;5051654;28;20048;-69
2022/11/25 02:48:10;;;;;;;25.23;4.85;;;;;;;;;;5050892;28;20436;-69
2022/11/25 02:50:36;;;;;;;29.15;5.93;;;;;;;;;;5051912;28;20033;-69
2022/11/25 02:53:05;;;;;;;21.40;4.38;;;;;;;;;;5051700;28;20095;-69
2022/11/25 02:55:32;;;;;;;28.92;4.15;;;;;;;;;;5048881;28;20227;-69
2022/11/25 02:57:58;;;;;;;22.45;4.78;;;;;;;;;;5051604;28;20044;-69
2022/11/25 03:00:24;;;;;;;16.42;4.35;;;;;;;;;;5051988;28;20068;-69
2022/11/25 03:02:52;;;;;;;19.98;4.30;;;;;;;;;;5051328;28;20045;-69
2022/11/25 03:05:18;;;;;;;24.85;4.78;;;;;;;;;;5052645;28;20554;-69
2022/11/25 03:07:44;;;;;;;25.90;4.30;;;;;;;;;;5051620;28;20079;-69
2022/11/25 03:10:10;;;;;;;19.35;4.20;;;;;;;;;;5051728;28;20033;-68
2022/11/25 03:12:37;;;;;;;16.63;4.25;;;;;;;;;;5052032;28;20483;-67
2022/11/25 03:15:03;;;;;;;22.50;5.32;;;;;;;;;;5052269;28;20037;-68
2022/11/25 03:17:29;;;;;;;21.02;4.78;;;;;;;;;;5051446;28;20032;-68
2022/11/25 03:19:55;;;;;;;28.92;5.30;;;;;;;;;;5051361;28;20091;-68
2022/11/25 03:22:21;;;;;;;16.90;4.75;;;;;;;;;;5034518;28;20040;-68
2022/11/25 03:24:47;;;;;;;26.88;5.35;;;;;;;;;;5051242;28;20033;-69
2022/11/25 03:27:13;;;;;;;28.05;5.65;;;;;;;;;;5034704;28;20037;-68
2022/11/25 03:29:39;;;;;;;19.63;5.18;;;;;;;;;;5051208;28;20120;-68
2022/11/25 03:32:06;;;;;;;27.33;5.75;;;;;;;;;;5052507;28;20044;-68
2022/11/25 03:34:32;;;;;;;20.35;5.68;;;;;;;;;;5051342;28;20102;-69
2022/11/25 03:36:58;;;;;;;19.88;5.15;;;;;;;;;;5052237;28;20033;-69
2022/11/25 03:39:24;;;;;;;27.67;4.70;;;;;;;;;;5050824;28;20037;-69
2022/11/25 03:41:50;;;;;;;21.48;4.70;;;;;;;;;;5083845;28;20456;-69
2022/11/25 03:44:16;;;;;;;14.10;4.28;;;;;;;;;;5051123;28;20546;-69
2022/11/25 03:46:42;;;;;;;16.95;4.55;;;;;;;;;;5050938;28;20051;-69
2022/11/25 03:49:08;;;;;;;19.95;4.93;;;;;;;;;;5052165;28;20067;-69
2022/11/25 03:51:34;;;;;;;14.80;4.47;;;;;;;;;;5052162;28;20037;-69
2022/11/25 03:54:00;;;;;;;20.90;4.35;;;;;;;;;;5050854;28;20090;-68
2022/11/25 03:56:26;;;;;;;24.05;5.45;;;;;;;;;;5052194;28;20037;-68
2022/11/25 03:58:52;;;;;;;20.48;5.55;;;;;;;;;;5050182;28;20078;-68
2022/11/25 04:01:18;;;;;;;17.70;4.60;;;;;;;;;;5050895;28;20058;-68
2022/11/25 04:03:45;;;;;;;19.25;4.85;;;;;;;;;;5050829;28;20067;-68
2022/11/25 04:06:11;;;;;;;20.48;5.00;;;;;;;;;;5051948;28;20045;-68
2022/11/25 04:08:37;;;;;;;22.00;5.80;;;;;;;;;;5050546;28;20036;-68
2022/11/25 04:11:03;;;;;;;17.55;4.47;;;;;;;;;;5051760;28;20511;-68
2022/11/25 04:13:29;;;;;;;19.67;4.85;;;;;;;;;;5050588;28;20037;-68
2022/11/25 04:15:55;;;;;;;17.88;5.10;;;;;;;;;;5050774;28;20467;-69
2022/11/25 04:18:21;;;;;;;21.58;5.05;;;;;;;;;;5049111;28;20116;-69
2022/11/25 04:20:47;;;;;;;17.70;5.03;;;;;;;;;;5051875;28;20033;-69
2022/11/25 04:23:13;;;;;;;16.50;5.15;;;;;;;;;;5051683;28;20456;-69
2022/11/25 04:25:40;;;;;;;19.85;5.55;;;;;;;;;;5050442;28;20132;-69
2022/11/25 04:28:06;;;;;;;23.33;5.22;;;;;;;;;;5050487;28;20370;-69
2022/11/25 04:30:32;;;;;;;20.85;6.63;;;;;;;;;;5075486;28;20037;-69
2022/11/25 04:32:58;;;;;;;20.55;5.30;;;;;;;;;;5050134;28;20512;-69
2022/11/25 04:35:24;;;;;;;22.30;4.90;;;;;;;;;;5033909;28;20053;-69
2022/11/25 04:37:50;;;;;;;23.02;4.63;;;;;;;;;;5050263;28;20083;-69
2022/11/25 04:40:16;;;;;;;19.33;5.22;;;;;;;;;;5033778;28;20045;-69
2022/11/25 04:42:42;;;;;;;18.63;5.53;;;;;;;;;;5047827;28;20124;-69
2022/11/25 04:45:14;;;;;;;21.35;5.95;;;;;;;;;;5050153;28;20044;-69
2022/11/25 04:47:40;;;;;;;18.67;5.57;;;;;;;;;;5033065;28;20057;-69
2022/11/25 04:50:08;;;;;;;24.27;7.22;;;;;;;;;;5050463;28;20378;-69
2022/11/25 04:52:34;;;;;;;21.83;6.15;;;;;;;;;;5049494;28;20401;-68
2022/11/25 04:55:00;;;;;;;24.40;5.80;;;;;;;;;;5050497;28;20454;-68
2022/11/25 04:57:27;;;;;;;21.02;5.53;;;;;;;;;;5032917;28;20194;-68
2022/11/25 04:59:53;;;;;;;17.85;5.32;;;;;;;;;;5033480;28;20086;-69
2022/11/25 05:02:20;;;;;;;23.95;6.45;;;;;;;;;;5050167;28;20036;-69
2022/11/25 05:04:47;;;;;;;20.08;5.45;;;;;;;;;;5050508;28;20047;-69
2022/11/25 05:07:14;;;;;;;18.77;5.93;;;;;;;;;;5049856;28;20112;-69
2022/11/25 05:09:40;;;;;;;22.77;6.28;;;;;;;;;;5050067;28;20028;-69
2022/11/25 05:12:07;;;;;;;19.98;6.25;;;;;;;;;;5051702;28;20060;-69
2022/11/25 05:14:34;;;;;;;18.90;6.60;;;;;;;;;;5053611;28;20469;-69
2022/11/25 05:17:01;;;;;;;22.85;6.38;;;;;;;;;;5054875;28;20041;-69
2022/11/25 05:19:27;;;;;;;24.27;5.93;;;;;;;;;;5054805;28;20060;-69
2022/11/25 05:21:53;;;;;;;26.23;6.15;;;;;;;;;;5053379;28;20037;-69
2022/11/25 05:24:19;;;;;;;19.60;6.45;;;;;;;;;;5054738;28;20032;-68
2022/11/25 05:26:45;;;;;;;24.25;6.63;;;;;;;;;;5053402;28;20366;-68
2022/11/25 05:29:11;;;;;;;29.08;6.20;;;;;;;;;;5053464;28;20091;-68
2022/11/25 05:31:37;;;;;;;21.58;6.28;;;;;;;;;;5053357;28;20489;-68
2022/11/25 05:34:04;;;;;;;28.38;6.60;;;;;;;;;;5052885;28;20076;-68
2022/11/25 05:36:30;;;;;;;22.75;6.85;;;;;;;;;;5036407;28;20045;-69
2022/11/25 05:38:56;;;;;;;21.52;5.53;;;;;;;;;;5036253;28;20041;-69
2022/11/25 05:41:23;;;;;;;27.95;7.00;;;;;;;;;;5036498;28;20051;-68
2022/11/25 05:43:49;;;;;;;23.63;8.75;;;;;;;;;;5053244;28;20045;-68
2022/11/25 05:46:15;;;;;;;19.35;7.38;;;;;;;;;;5036103;28;20037;-68
2022/11/25 05:48:41;;;;;;;24.77;6.53;;;;;;;;;;5036225;28;20037;-68
2022/11/25 05:51:08;;;;;;;22.20;5.97;;;;;;;;;;5036300;28;20044;-68
2022/11/25 05:53:34;;;;;;;17.83;6.13;;;;;;;;;;5052632;28;20033;-68
2022/11/25 05:56:02;;;;;;;22.25;6.32;;;;;;;;;;5053166;28;20420;-73
2022/11/25 05:58:29;;;;;;;17.60;5.78;;;;;;;;;;5050511;28;20047;-69
2022/11/25 06:00:56;;;;;;;25.98;6.20;;;;;;;;;;5053944;28;20045;-69
2022/11/25 06:03:25;;;;;;;28.15;6.50;;;;;;;;;;5047819;28;20042;-69
2022/11/25 06:05:51;;;;;;;34.03;5.80;;;;;;;;;;5047106;28;20143;-68
2022/11/25 06:08:18;;;;;;;27.77;6.65;;;;;;;;;;5052791;28;20144;-69
2022/11/25 06:10:44;;;;;;;23.55;5.82;;;;;;;;;;5052430;28;20040;-69
2022/11/25 06:13:10;;;;;;;24.52;6.10;;;;;;;;;;5052317;28;20037;-69
2022/11/25 06:15:40;;;;;;;20.33;6.38;;;;;;;;;;5052329;28;20086;-69
2022/11/25 06:18:06;;;;;;;19.67;5.80;;;;;;;;;;5052670;28;20154;-69
2022/11/25 06:20:32;;;;;;;30.48;6.00;;;;;;;;;;5052194;28;20429;-69
2022/11/25 06:22:58;;;;;;;22.45;6.32;;;;;;;;;;5052246;28;20098;-69
2022/11/25 06:25:25;;;;;;;24.67;7.00;;;;;;;;;;5051919;28;20045;-69
2022/11/25 06:27:51;;;;;;;26.02;6.82;;;;;;;;;;5052367;28;20087;-69
2022/11/25 06:30:17;;;;;;;22.88;6.60;;;;;;;;;;5052096;28;20033;-69
2022/11/25 06:32:44;;;;;;;21.58;5.55;;;;;;;;;;5052155;28;20179;-69
2022/11/25 06:35:10;;;;;;;32.15;6.28;;;;;;;;;;5052046;28;20037;-69
2022/11/25 06:37:36;;;;;;;23.02;6.03;;;;;;;;;;5053395;28;20036;-69
2022/11/25 06:40:02;;;;;;;17.85;5.93;;;;;;;;;;5035133;28;20477;-69
2022/11/25 06:42:28;;;;;;;23.58;5.78;;;;;;;;;;5035294;28;20035;-69
2022/11/25 06:44:54;;;;;;;20.15;6.35;;;;;;;;;;5051499;28;20037;-69
2022/11/25 06:47:21;;;;;;;22.40;6.15;;;;;;;;;;5052060;28;20041;-69
2022/11/25 06:49:49;;;;;;;22.40;5.80;;;;;;;;;;5052273;28;20056;-69
2022/11/25 06:52:15;;;;;;;26.95;6.25;;;;;;;;;;5052123;28;20044;-69
2022/11/25 06:54:41;;;;;;;17.95;5.60;;;;;;;;;;5052559;28;20064;-67
2022/11/25 06:57:08;;;;;;;21.17;6.38;;;;;;;;;;5052430;28;20037;-68
2022/11/25 06:59:34;;;;;;;22.70;5.65;;;;;;;;;;5052497;28;20128;-69
2022/11/25 07:02:00;;;;;;;23.95;5.78;;;;;;;;;;5052363;28;20123;-69
2022/11/25 07:04:27;;;;;;;23.40;6.43;;;;;;;;;;5036246;28;20061;-69
2022/11/25 07:06:53;;;;;;;17.75;5.50;;;;;;;;;;5052289;28;20466;-69
2022/11/25 07:09:21;;;;;;;14.77;5.72;;;;;;;;;;5053578;28;20037;-69
2022/11/25 07:11:47;;;;;;;27.00;6.13;;;;;;;;;;5052415;28;20040;-70
2022/11/25 07:14:15;;;;;;;16.20;5.57;;;;;;;;;;5052361;28;20044;-68
2022/11/25 07:16:42;;;;;;;16.17;5.90;;;;;;;;;;5052169;28;20170;-69
2022/11/25 07:19:10;;;;;;;19.52;7.20;;;;;;;;;;5053590;28;20044;-69
2022/11/25 07:21:36;;;;;;;18.08;5.95;;;;;;;;;;5052027;28;20374;-69
2022/11/25 07:24:04;;;;;;;20.00;7.10;;;;;;;;;;5052373;28;20036;-69
2022/11/25 07:26:31;;;;;;;22.55;6.32;;;;;;;;;;5051897;28;20110;-69
2022/11/25 07:28:59;;;;;;;21.58;7.03;;;;;;;;;;5052154;28;20068;-69
2022/11/25 07:31:32;;;;;;;22.45;5.75;;;;;;;;;;5051935;28;20469;-69
2022/11/25 07:34:02;;;;;;;14.55;5.70;;;;;;;;;;5051355;28;20036;-69
2022/11/25 07:36:29;;;;;;;21.50;6.53;;;;;;;;;;5053119;28;20174;-69
2022/11/25 07:38:57;;;;;;;20.85;6.38;;;;;;;;;;5052014;28;20045;-69
2022/11/25 07:41:24;;;;;;;14.98;6.50;;;;;;;;;;5051808;28;20481;-69
2022/11/25 07:43:51;;;;;;;17.67;5.70;;;;;;;;;;5051097;28;20124;-69
2022/11/25 07:46:17;;;;;;;16.70;5.82;;;;;;;;;;5050992;28;20041;-69
2022/11/25 07:48:44;;;;;;;18.38;5.93;;;;;;;;;;5051827;28;20094;-68
2022/11/25 07:51:17;;;;;;;18.35;6.70;;;;;;;;;;5050399;28;20045;-68
2022/11/25 07:53:43;;;;;;;18.45;5.75;;;;;;;;;;5076529;28;20049;-69
2022/11/25 07:56:09;;;;;;;22.50;5.93;;;;;;;;;;5062770;28;20044;-68
2022/11/25 07:58:35;;;;;;;17.13;6.10;;;;;;;;;;5067301;28;20102;-68
2022/11/25 08:01:05;;;;;;;16.75;6.55;;;;;;;;;;5056889;28;20390;-69
2022/11/25 08:03:32;;;;;;;13.10;6.28;;;;;;;;;;5052765;28;20149;-69
2022/11/25 08:06:05;;;;;;;20.05;6.88;;;;;;;;;;5052579;28;20397;-69
2022/11/25 08:08:32;;;;;;;19.60;7.00;;;;;;;;;;5051803;28;20539;-69
2022/11/25 08:10:58;;;;;;;19.02;6.60;;;;;;;;;;5053077;28;20041;-68
2022/11/25 08:13:24;;;;;;;19.40;6.72;;;;;;;;;;5053019;28;20033;-68
2022/11/25 08:15:50;;;;;;;14.20;6.57;;;;;;;;;;5051953;28;20481;-68
2022/11/25 08:18:17;;;;;;;15.55;5.75;;;;;;;;;;5051833;28;20508;-69
2022/11/25 08:20:43;;;;;;;27.48;7.00;;;;;;;;;;5051641;28;20549;-69
2022/11/25 08:23:09;;;;;;;23.70;6.78;;;;;;;;;;5048082;28;20029;-69
2022/11/25 08:25:39;;;;;;;15.70;6.03;;;;;;;;;;5031676;28;20060;-68
2022/11/25 08:28:05;;;;;;;19.60;6.93;;;;;;;;;;5046827;28;20033;-68
2022/11/25 08:30:31;;;;;;;14.75;5.97;;;;;;;;;;5046698;28;20033;-69
2022/11/25 08:32:58;;;;;;;16.35;6.57;;;;;;;;;;5047249;28;20064;-68
2022/11/25 08:35:25;;;;;;;16.65;6.10;;;;;;;;;;5046740;28;20049;-70
2022/11/25 08:37:51;;;;;;;23.67;6.63;;;;;;;;;;5047456;28;20037;-71
2022/11/25 08:40:17;;;;;;;18.75;7.22;;;;;;;;;;5046737;28;20033;-69
2022/11/25 08:42:43;;;;;;;26.63;7.15;;;;;;;;;;5048716;28;20048;-69
2022/11/25 08:45:09;;;;;;;11.65;6.05;;;;;;;;;;5046830;28;20045;-69
2022/11/25 08:47:36;;;;;;;19.30;6.45;;;;;;;;;;5051360;28;20037;-69
2022/11/25 08:50:02;;;;;;;18.65;6.65;;;;;;;;;;5050903;28;20140;-69
2022/11/25 08:52:28;;;;;;;16.70;6.53;;;;;;;;;;5050405;28;20029;-69
2022/11/25 08:54:54;;;;;;;20.90;8.02;;;;;;;;;;5051139;28;20057;-69
2022/11/25 08:57:21;;;;;;;14.07;5.90;;;;;;;;;;5051010;28;20080;-69
2022/11/25 08:59:47;;;;;;;18.95;6.57;;;;;;;;;;5037528;28;20190;-69
2022/11/25 09:02:15;;;;;;;20.83;7.15;;;;;;;;;;5055045;28;20041;-69
2022/11/25 09:04:41;;;;;;;22.95;6.55;;;;;;;;;;5054095;28;20116;-69
2022/11/25 09:07:07;;;;;;;18.42;6.57;;;;;;;;;;5037648;28;20040;-70
2022/11/25 09:09:33;;;;;;;20.23;6.22;;;;;;;;;;5054364;28;20041;-69
2022/11/25 09:11:59;;;;;;;18.02;6.13;;;;;;;;;;5054944;28;20392;-69
2022/11/25 09:14:25;;;;;;;20.50;6.68;;;;;;;;;;5055181;28;20093;-69
2022/11/25 09:16:51;;;;;;;17.83;5.93;;;;;;;;;;5021141;28;20051;-71
2022/11/25 09:19:17;;;;;;;23.90;6.60;;;;;;;;;;5054172;28;20102;-70
2022/11/25 09:21:43;;;;;;;16.50;5.68;;;;;;;;;;5054003;28;20068;-70
2022/11/25 09:24:09;;;;;;;19.00;6.25;;;;;;;;;;5055266;28;20367;-70
2022/11/25 09:26:38;;;;;;;19.33;5.40;;;;;;;;;;5054132;28;20033;-69
2022/11/25 09:29:04;;;;;;;18.90;5.90;;;;;;;;;;5053636;28;20044;-70
2022/11/25 09:31:30;;;;;;;13.73;5.72;;;;;;;;;;5049880;28;20033;-70
2022/11/25 09:33:57;;;;;;;20.02;5.70;;;;;;;;;;5049869;28;20047;-70
2022/11/25 09:36:23;;;;;;;16.42;5.13;;;;;;;;;;5035325;28;20099;-70
2022/11/25 09:38:50;;;;;;;18.63;5.20;;;;;;;;;;5055753;28;20465;-70
2022/11/25 09:46:40;;;;;;;16.15;5.70;;;;;;;;;;5053664;28;20048;-70
2022/11/25 09:47:09;;;;;;;17.88;5.18;;;;;;;;;;5053622;28;20056;-69
2022/11/25 09:49:39;;;;;;;19.05;5.00;;;;;;;;;;5054015;28;20033;-69
2022/11/25 09:52:23;;;;;;;14.40;5.43;;;;;;;;;;5037424;28;20045;-69
2022/11/25 09:54:49;;;;;;;16.50;6.20;;;;;;;;;;5053293;28;20060;-69
2022/11/25 09:57:21;;;;;;;19.73;5.57;;;;;;;;;;5053332;28;20507;-69
2022/11/25 09:59:53;;;;;;;17.30;5.75;;;;;;;;;;5053890;28;20043;-70
2022/11/25 10:02:27;;;;;;;18.35;4.90;;;;;;;;;;5054095;28;20080;-70
2022/11/25 10:04:56;;;;;;;15.50;4.97;;;;;;;;;;5054664;28;20037;-69
2022/11/25 10:07:51;;;;;;;12.02;4.78;;;8.70;99.90;;;;;;5053510;28;20371;-69
2022/11/25 10:10:21;;;;;;;20.52;5.28;;;;;;;;;;5052412;28;20067;-70
2022/11/25 10:12:49;;;;;;;25.75;5.28;;;;;;;;;;5054484;28;20056;-70
2022/11/25 10:15:17;;;;;;;12.52;4.40;;;;;;;;;;5053483;28;20060;-70
2022/11/25 10:17:48;;;;;;;19.35;5.65;;;;;;;;;;5054922;28;20037;-70
2022/11/25 10:20:32;;;;;;;18.42;5.45;;;;;;;;;;5053032;28;20520;-70
2022/11/25 10:23:02;;;;;;;14.38;4.22;;;;;;;;;;5075953;28;20045;-70
2022/11/25 10:25:30;;;;;;;17.05;5.35;;;;;;;;;;5052596;28;20052;-69
2022/11/25 10:28:04;;;;;;;17.83;5.10;;;;;;;;;;5053431;28;20037;-70
2022/11/25 10:30:45;;;;;;;13.05;5.10;;;;;;;;;;5052980;28;20426;-70
2022/11/25 10:33:19;;;;;;;15.70;4.88;;;;;;;;;;5033303;28;20033;-70
2022/11/25 10:35:51;;;;;;;11.65;4.45;;;;;;;;;;5046444;28;20061;-70
2022/11/25 10:38:36;;;;;;;19.35;4.38;;;;;;;;;;5052944;28;20090;-70
2022/11/25 10:41:03;;;;;;;16.80;5.13;;;;;;;;;;5052940;28;20076;-70
2022/11/25 10:43:29;;;;;;;13.38;4.78;;;;;;;;;;5053099;28;20484;-70
2022/11/25 10:46:16;;;;;;;19.35;4.78;;;;;;;;;;5053752;28;20147;-70
2022/11/25 10:48:51;;;;;;;22.90;5.07;;;;;;;;;;5022748;28;20122;-70
2022/11/25 10:51:30;;;;;;;18.15;4.75;;;;;;;;;;5069818;28;20048;-70
2022/11/25 10:54:08;;;;;;;15.10;4.82;;;;;;;;;;5051488;28;20119;-72
2022/11/25 10:56:42;;;;;;;17.95;4.25;;;;;;;;;;5052479;28;20166;-70
2022/11/25 10:59:22;;;;;;;25.67;4.88;;;;;;;;;;5051389;28;20040;-70
2022/11/25 11:01:48;;;;;;;18.13;3.95;;;;;;;;;;5051335;28;20481;-70
2022/11/25 11:04:17;;;;;;;17.63;4.53;;;;;;;;;;5051719;28;20079;-70
2022/11/25 11:06:44;;;;;;;26.50;5.57;;;;;;;;;;5051389;28;20037;-70
2022/11/25 11:09:30;;;;;;;19.20;4.22;;;;;;;;;;5051511;28;20029;-75
2022/11/25 11:11:57;;;;;;;23.67;4.32;;;;;;;;;;5051476;28;20090;-73
2022/11/25 11:14:23;;;;;;;28.38;4.32;;;;;;;;;;5076283;28;20140;-70
2022/11/25 11:16:53;;;;;;;14.15;4.30;;;;;;;;;;5034249;28;20056;-70
2022/11/25 11:19:21;;;;;;;13.98;3.83;;;;;;;;;;5050356;28;20052;-70
2022/11/25 11:21:48;;;;;;;22.70;4.75;;;;;;;;;;5051174;28;20037;-70
2022/11/25 11:24:26;;;;;;;20.52;4.38;;;;;;;;;;5051720;28;20135;-70
2022/11/25 11:27:06;;;;;;;15.73;4.50;;;;;;;;;;5050188;28;20052;-70
2022/11/25 11:29:32;;;;;;;23.83;4.22;;;;;;;;;;5050192;28;20043;-70
2022/11/25 11:32:00;;;;;;;21.73;4.43;;;;;;;;;;5033428;28;20033;-70
2022/11/25 11:34:35;;;;;;;17.70;4.35;;;;;;;;;;5049543;28;20041;-70
2022/11/25 11:37:04;;;;;;;21.52;3.92;;;;;;;;;;5052762;28;20049;-70
2022/11/25 11:39:42;;;;;;;20.02;3.83;;;;;;;;;;5052314;28;20040;-70
2022/11/25 11:42:18;;;;;;;33.83;4.90;;;;;;;;;;5052342;28;20059;-71
2022/11/25 11:44:59;;;;;;;24.92;4.13;;;;;;;;;;5051887;28;20048;-70
2022/11/25 11:47:35;;;;;;;24.95;3.60;;;;;;;;;;5051933;28;20072;-70
2022/11/25 11:50:01;;;;;;;22.52;4.85;;;;;;;;;;5035227;28;20037;-71
2022/11/25 11:52:37;;;;;;;18.67;3.67;;;;;;;;;;5051877;28;20520;-71
2022/11/25 11:55:12;;;;;;;22.35;3.97;;;;;;;;;;5051606;28;20057;-70
2022/11/25 11:57:53;;;;;;;24.05;4.28;;;;;;;;;;5052129;28;20048;-70
2022/11/25 12:00:20;;;;;;;18.50;3.30;;;;;;;;;;5051713;28;20049;-70
2022/11/25 12:02:54;;;;;;;20.15;4.35;;;;;;;;;;5053293;28;20048;-71
2022/11/25 12:05:23;;;;;;;22.40;3.70;;;;;;;;;;5035237;28;20045;-70
2022/11/25 12:07:52;;;;;;;19.55;4.05;;;;;;;;;;5051568;28;20045;-70
2022/11/25 12:10:38;;;;;;;22.67;3.90;;;;;;;;;;5051744;28;20048;-70
2022/11/25 12:13:04;;;;;;;17.13;3.45;;;;;;;;;;5035366;28;20047;-71
2022/11/25 12:15:33;;;;;;;19.50;3.92;;;;;;;;;;5052275;28;20041;-70
2022/11/25 12:18:02;;;;;;;21.60;4.03;;;;;;;;;;5051706;28;20037;-70
2022/11/25 12:20:31;;;;;;;20.58;3.72;;;;;;;;;;5052555;28;20048;-70
2022/11/25 12:22:59;;;;;;;23.05;3.53;;;;;;;;;;5056862;28;20048;-69
2022/11/25 12:25:29;;;;;;;23.83;3.72;;;;;;;;;;5056919;28;20048;-71
2022/11/25 12:28:01;;;;;;;19.63;3.17;;;;;;;;;;5056273;28;20435;-70
2022/11/25 12:30:46;;;;;;;20.37;3.53;;;;;;;;;;5055801;28;20083;-70
2022/11/25 12:33:14;;;;;;;25.90;3.85;;;;;;;;;;5039497;28;20102;-71
2022/11/25 12:35:49;;;;;;;20.00;3.20;;;;;;;;;;5055663;28;20037;-70
2022/11/25 12:38:19;;;;;;;22.67;4.55;;;;;;;;;;5055434;28;20036;-70
2022/11/25 12:40:49;;;;;;;19.73;3.40;;;;;;;;;;5055616;28;20072;-70
2022/11/25 12:43:21;;;;;;;29.38;3.45;;;;;;;;;;5055433;28;20095;-70
2022/11/25 12:45:49;;;;;;;25.13;3.63;;;;;;;;;;5055174;28;20048;-71
2022/11/25 12:48:15;;;;;;;16.58;3.65;;;;;;;;;;5055292;28;20607;-71
2022/11/25 12:50:41;;;;;;;24.13;3.13;;;;;;;;;;5055274;28;20040;-71
2022/11/25 12:53:16;;;;;;;21.42;3.25;;;;;;;;;;5055192;28;20032;-70
2022/11/25 12:55:42;;;;;;;25.67;2.92;;;;;;;;;;5054944;28;20072;-70
2022/11/25 12:58:27;;;;;;;27.67;3.78;;;;;;;;;;5055301;28;20049;-70
2022/11/25 13:01:17;;;;;;;25.23;3.83;;;11.30;99.90;;;;;;5054973;28;20489;-70
2022/11/25 13:03:59;;;;;;;30.75;4.32;;;;;;;;;;5055222;28;20037;-70
2022/11/25 13:06:44;;;;;;;23.75;4.43;;;;;;;;;;5054721;28;20041;-70
2022/11/25 13:09:28;;;;;;;19.65;4.25;;;;;;;;;;5037890;28;20044;-70
2022/11/25 13:11:54;;;;;;;20.83;3.20;;;;;;;;;;5054765;28;20044;-70
2022/11/25 13:14:24;;;;;;;19.95;3.10;;;;;;;;;;5054474;28;20047;-70
2022/11/25 13:16:50;;;;;;;21.08;4.30;;;;;;;;;;5052194;28;20071;-70
2022/11/25 13:19:19;;;;;;;20.73;2.85;;;;;;;;;;5055770;28;20041;-70
2022/11/25 13:21:58;;;;;;;19.15;3.05;;;;;;;;;;5054604;28;20048;-70
2022/11/25 13:24:37;;;;;;;17.25;4.22;;;;;;;;;;5054167;28;20493;-70
2022/11/25 13:27:04;;;;;;;24.88;3.90;;;;;;;;;;5053123;28;20098;-70
2022/11/25 13:29:30;;;;;;;28.05;3.97;;;;;;;;;;5054215;28;20033;-70
2022/11/25 13:31:57;;;;;;;21.42;3.72;;;;;;;;;;5051962;28;20037;-70
2022/11/25 13:34:33;;;;;;;25.15;4.03;;;;;;;;;;5054975;28;20044;-70
2022/11/25 13:37:00;;;;;;;27.23;5.78;;;;;;;;;;5054441;28;20504;-70
2022/11/25 13:39:29;;;;;;;15.23;2.92;;;;;;;;;;5054129;28;20076;-70
2022/11/25 13:41:59;;;;;;;20.35;3.47;;;;;;;;;;5054087;28;20095;-70
2022/11/25 13:44:48;;;;;;;22.23;4.47;;;;;;;;;;5054283;28;20041;-69
2022/11/25 13:47:24;;;;;;;28.42;4.22;;;;;;;;;;5053926;28;20052;-69
2022/11/25 13:49:51;;;;;;;21.33;3.25;;;;;;;;;;5053966;28;20040;-69
2022/11/25 13:52:17;;;;;;;29.60;5.10;;;;;;;;;;5052860;28;20040;-69
2022/11/25 13:54:46;;;;;;;30.15;4.35;;;;;;;;;;5037107;28;20053;-69
2022/11/25 13:57:12;;;;;;;28.42;4.03;;;;;;;;;;5055184;28;20127;-69
2022/11/25 13:59:41;;;;;;;32.90;5.55;;;;;;;;;;5054066;28;20393;-70
2022/11/25 14:02:26;;;;;;;22.80;3.50;;;;;;;;;;5053647;28;20503;-70
2022/11/25 14:05:01;;;;;;;18.42;3.22;;;;;;;;;;5037431;28;20055;-70
2022/11/25 14:07:30;;;;;;;26.80;3.22;;;;;;;;;;5053376;28;20041;-70
2022/11/25 14:09:56;;;;;;;29.10;4.88;;;;;;;;;;5053922;28;20060;-69
2022/11/25 14:12:31;;;;;;;28.42;4.78;;;;;;;;;;5053787;28;20033;-69
2022/11/25 14:15:11;;;;;;;29.10;3.83;;;;;;;;;;5054787;28;20071;-70
2022/11/25 14:17:53;;;;;;;23.92;3.50;;;;;;;;;;5053707;28;20443;-70
2022/11/25 14:20:38;;;;;;;27.58;4.00;;;;;;;;;;5053834;28;20045;-70
2022/11/25 14:23:16;;;;;;;22.05;3.60;;;;;;;;;;5036806;28;20045;-76
2022/11/25 14:25:53;;;;;;;30.60;4.38;;;;;;;;;;5053586;28;20044;-70
2022/11/25 14:28:19;;;;;;;22.13;3.25;;;;;;;;;;5053043;28;20039;-70
2022/11/25 14:30:47;;;;;;;20.27;3.50;;;;;;;;;;5037038;28;20036;-70
2022/11/25 14:33:14;;;;;;;30.98;4.00;;;;;;;;;;5053189;28;20037;-70
2022/11/25 14:35:43;;;;;;;29.70;4.22;;;;;;;;;;5053087;28;20083;-70
2022/11/25 14:38:15;;;;;;;20.08;3.75;;;;;;;;;;5052076;28;20032;-70
2022/11/25 14:40:50;;;;;;;;;;;10.90;99.90;;;;;;5053530;28;20037;-69
2022/11/25 14:43:26;;;;;;;23.55;4.20;;;;;;;;;;5052946;28;19943;-69
2022/11/25 14:46:14;;;;;;;27.88;4.22;;;;;;;;;;5052072;28;20564;-70
2022/11/25 14:48:40;;;;;;;26.48;4.65;;;;;;;;;;5051176;28;20500;-70